createdAt,value
2022-12-23T00:03:16.017Z,6.70
2022-12-23T00:07:17.580Z,11.98
2022-12-23T00:11:20.373Z,6.53
2022-12-23T00:15:21.813Z,5.13
2022-12-23T00:19:23.331Z,6.07
2022-12-23T00:23:25.335Z,9.35
2022-12-23T00:27:26.774Z,10.52
2022-12-23T00:31:28.472Z,13.73
2022-12-23T00:35:32.070Z,12.52
2022-12-23T00:39:55.073Z,3.90
2022-12-23T00:43:57.101Z,7.53
2022-12-23T00:48:17.388Z,4.47
2022-12-23T00:56:20.177Z,5.72
2022-12-23T01:00:42.081Z,10.10
2022-12-23T01:05:02.169Z,6.07
2022-12-23T01:09:03.745Z,4.05
2022-12-23T01:13:05.893Z,4.35
2022-12-23T01:17:08.114Z,7.93
2022-12-23T01:21:10.621Z,5.20
2022-12-23T01:25:12.371Z,7.57
2022-12-23T01:29:13.884Z,5.40
2022-12-23T01:33:15.303Z,3.97
2022-12-23T01:37:16.748Z,13.52
2022-12-23T01:41:43.111Z,7.82
2022-12-23T01:45:45.017Z,4.57
2022-12-23T01:49:48.673Z,6.07
2022-12-23T01:53:56.274Z,3.13
2022-12-23T01:58:09.360Z,7.93
2022-12-23T02:02:30.358Z,11.77
2022-12-23T02:06:56.752Z,3.35
2022-12-23T02:11:43.107Z,3.22
2022-12-23T02:16:17.750Z,4.95
2022-12-23T02:20:40.203Z,5.65
2022-12-23T02:25:11.870Z,4.38
2022-12-23T02:29:19.416Z,3.70
2022-12-23T02:33:39.495Z,8.23
2022-12-23T02:38:01.917Z,8.93
2022-12-23T02:42:14.380Z,7.63
2022-12-23T02:46:33.447Z,7.18
2022-12-23T02:50:37.867Z,11.82
2022-12-23T02:54:45.741Z,6.97
2022-12-23T02:59:01.633Z,20.92
2022-12-23T03:03:03.281Z,6.43
2022-12-23T03:07:08.179Z,9.30
2022-12-23T03:11:15.067Z,13.95
2022-12-23T03:15:28.246Z,12.05
2022-12-23T03:19:47.926Z,8.88
2022-12-23T03:24:26.081Z,3.92
2022-12-23T03:28:45.567Z,4.18
2022-12-23T03:32:52.885Z,10.77
2022-12-23T03:36:58.796Z,2.38
2022-12-23T03:41:07.736Z,4.40
2022-12-23T03:49:43.828Z,6.70
2022-12-23T03:54:02.207Z,11.00
2022-12-23T03:58:30.425Z,15.40
2022-12-23T04:02:59.978Z,15.75
2022-12-23T04:07:19.271Z,12.13
2022-12-23T04:11:21.011Z,11.65
2022-12-23T04:15:25.267Z,16.90
2022-12-23T04:19:27.027Z,10.57
2022-12-23T04:23:28.559Z,12.35
2022-12-23T04:27:30.100Z,15.77
2022-12-23T04:31:31.871Z,13.82
2022-12-23T04:35:33.366Z,15.13
2022-12-23T04:39:34.795Z,19.35
2022-12-23T04:43:36.230Z,15.05
2022-12-23T04:47:37.709Z,14.82
2022-12-23T04:51:39.113Z,8.32
2022-12-23T04:55:40.590Z,10.75
2022-12-23T04:59:42.097Z,19.25
2022-12-23T05:03:43.568Z,5.60
2022-12-23T05:07:44.978Z,8.27
2022-12-23T05:11:46.552Z,10.80
2022-12-23T05:15:53.077Z,10.13
2022-12-23T05:19:54.549Z,7.90
2022-12-23T05:23:56.020Z,4.18
2022-12-23T05:27:57.469Z,14.90
2022-12-23T05:31:59.027Z,17.17
2022-12-23T05:36:01.207Z,9.98
2022-12-23T05:40:02.817Z,11.77
2022-12-23T05:44:04.590Z,15.32
2022-12-23T05:48:06.766Z,23.00
2022-12-23T05:52:08.259Z,9.88
2022-12-23T05:56:09.683Z,14.50
2022-12-23T06:00:11.571Z,19.42
2022-12-23T06:04:16.100Z,14.32
2022-12-23T06:08:18.326Z,16.98
2022-12-23T06:12:19.740Z,17.92
2022-12-23T06:16:21.364Z,18.08
2022-12-23T06:20:23.187Z,5.43
2022-12-23T06:24:24.654Z,5.07
2022-12-23T06:28:26.640Z,8.30
2022-12-23T06:32:31.488Z,9.70
2022-12-23T06:36:35.950Z,9.75
2022-12-23T06:40:37.532Z,6.10
2022-12-23T06:44:38.955Z,11.02
2022-12-23T06:48:40.391Z,13.55
2022-12-23T06:52:42.947Z,12.65
2022-12-23T06:56:44.675Z,8.32
2022-12-23T07:00:46.506Z,13.10
2022-12-23T07:04:49.313Z,10.38
2022-12-23T07:08:51.106Z,6.60
2022-12-23T07:12:54.045Z,11.25
2022-12-23T07:16:55.542Z,12.38
2022-12-23T07:21:00.148Z,9.40
2022-12-23T07:25:02.468Z,14.40
2022-12-23T07:29:04.566Z,11.48
2022-12-23T07:33:05.987Z,8.50
2022-12-23T07:37:07.904Z,10.07
2022-12-23T07:41:10.583Z,12.30
2022-12-23T07:45:12.616Z,7.78
2022-12-23T07:49:14.465Z,9.73
2022-12-23T07:53:16.151Z,11.38
2022-12-23T07:57:17.615Z,7.60
2022-12-23T08:01:20.193Z,9.00
2022-12-23T08:05:22.019Z,13.48
2022-12-23T08:09:23.497Z,6.20
2022-12-23T08:13:25.093Z,5.03
2022-12-23T08:17:27.858Z,9.35
2022-12-23T08:21:29.571Z,10.02
2022-12-23T08:25:31.155Z,5.57
2022-12-23T08:29:36.580Z,8.95
2022-12-23T08:33:39.331Z,6.32
2022-12-23T08:37:40.858Z,7.03
2022-12-23T08:41:45.019Z,12.45
2022-12-23T08:45:46.592Z,6.85
2022-12-23T08:49:48.702Z,12.90
2022-12-23T08:53:56.288Z,12.98
2022-12-23T08:58:01.173Z,13.32
2022-12-23T09:02:03.311Z,7.22
2022-12-23T09:06:07.393Z,4.93
2022-12-23T09:10:08.924Z,3.47
2022-12-23T09:14:10.734Z,4.13
2022-12-23T09:18:12.299Z,8.57
2022-12-23T09:22:13.755Z,11.20
2022-12-23T09:26:23.298Z,2.05
2022-12-23T09:30:25.155Z,5.68
2022-12-23T09:34:26.787Z,14.43
2022-12-23T09:38:28.395Z,10.63
2022-12-23T09:42:49.570Z,6.60
2022-12-23T09:46:56.182Z,5.32
2022-12-23T09:50:57.730Z,9.00
2022-12-23T09:55:00.552Z,7.88
2022-12-23T09:59:30.963Z,13.68
2022-12-23T10:03:48.910Z,8.63
2022-12-23T10:08:15.205Z,9.63
2022-12-23T10:12:39.681Z,7.22
2022-12-23T10:16:49.350Z,11.30
2022-12-23T10:20:58.388Z,6.07
2022-12-23T10:25:03.183Z,8.45
2022-12-23T10:29:19.414Z,3.05
2022-12-23T10:33:29.304Z,7.00
2022-12-23T10:37:51.530Z,10.00
2022-12-23T10:42:21.524Z,8.00
2022-12-23T10:46:55.577Z,8.32
2022-12-23T10:51:03.112Z,11.98
2022-12-23T10:55:05.562Z,4.40
2022-12-23T10:59:14.176Z,4.32
2022-12-23T11:03:38.627Z,3.92
2022-12-23T11:07:45.426Z,3.53
2022-12-23T11:12:04.559Z,1.10
2022-12-23T11:16:27.091Z,2.38
2022-12-23T11:20:29.257Z,2.28
2022-12-23T11:24:39.575Z,3.50
2022-12-23T11:28:50.435Z,2.33
2022-12-23T11:32:52.482Z,1.45
2022-12-23T11:37:05.239Z,5.82
2022-12-23T11:41:08.836Z,4.95
2022-12-23T11:45:19.580Z,5.97
2022-12-23T11:49:23.757Z,2.50
2022-12-23T11:53:27.555Z,5.68
2022-12-23T11:57:39.441Z,3.25
2022-12-23T12:01:47.950Z,2.90
2022-12-23T12:06:02.377Z,1.88
2022-12-23T12:10:04.866Z,8.45
2022-12-23T12:14:08.571Z,3.08
2022-12-23T12:18:15.252Z,5.80
2022-12-23T12:22:29.486Z,1.95
2022-12-23T12:26:34.506Z,1.23
2022-12-23T12:30:49.163Z,1.33
2022-12-23T12:35:06.331Z,2.42
2022-12-23T12:39:15.494Z,1.52
2022-12-23T12:43:31.921Z,5.22
2022-12-23T12:47:57.064Z,1.58
2022-12-23T12:52:16.175Z,2.35
2022-12-23T12:56:48.505Z,1.13
2022-12-23T13:00:58.777Z,4.72
2022-12-23T13:05:15.531Z,7.63
2022-12-23T13:09:49.257Z,1.80
2022-12-23T13:14:19.026Z,2.60
2022-12-23T13:18:39.080Z,2.23
2022-12-23T13:22:40.878Z,5.28
2022-12-23T13:27:11.927Z,1.67
2022-12-23T13:32:01.475Z,1.75
2022-12-23T13:36:31.663Z,2.88
2022-12-23T13:40:42.714Z,0.95
2022-12-23T13:44:44.862Z,2.45
2022-12-23T13:49:08.082Z,1.65
2022-12-23T13:53:34.244Z,2.97
2022-12-23T13:57:35.652Z,0.68
2022-12-23T14:01:41.111Z,4.10
2022-12-23T14:05:45.831Z,0.60
2022-12-23T14:09:56.130Z,9.30
2022-12-23T14:14:00.968Z,0.55
2022-12-23T14:18:18.130Z,1.73
2022-12-23T14:23:01.331Z,1.63
2022-12-23T14:27:17.819Z,0.65
2022-12-23T14:31:40.726Z,1.42
2022-12-23T14:35:43.139Z,1.67
2022-12-23T14:39:44.732Z,3.83
2022-12-23T14:43:46.211Z,0.73
2022-12-23T14:47:47.688Z,11.68
2022-12-23T14:51:52.525Z,4.13
2022-12-23T14:56:15.048Z,1.10
2022-12-23T15:00:17.639Z,1.33
2022-12-23T15:04:24.793Z,3.67
2022-12-23T15:08:42.912Z,1.13
2022-12-23T15:12:47.954Z,1.08
2022-12-23T15:16:49.503Z,1.42
2022-12-23T15:21:12.381Z,1.90
2022-12-23T15:25:32.667Z,2.15
2022-12-23T15:29:34.826Z,1.60
2022-12-23T15:34:02.321Z,1.70
2022-12-23T15:37:59.928Z,1.45
2022-12-23T15:42:02.243Z,0.65
2022-12-23T15:46:28.712Z,1.00
2022-12-23T15:50:40.209Z,2.40
2022-12-23T15:54:53.397Z,1.48
2022-12-23T15:58:56.522Z,2.50
2022-12-23T16:03:01.117Z,2.40
2022-12-23T16:07:03.657Z,1.42
2022-12-23T16:11:20.802Z,3.03
2022-12-23T16:15:31.835Z,1.30
2022-12-23T16:19:40.329Z,2.05
2022-12-23T16:23:50.192Z,0.65
2022-12-23T16:32:01.738Z,3.80
2022-12-23T16:36:32.231Z,1.08
2022-12-23T16:40:33.693Z,1.55
2022-12-23T16:44:35.116Z,3.17
2022-12-23T16:48:40.069Z,3.25
2022-12-23T16:52:41.585Z,8.07
2022-12-23T16:56:46.373Z,5.78
2022-12-23T17:00:48.717Z,2.40
2022-12-23T17:04:51.153Z,13.57
2022-12-23T17:08:53.244Z,6.03
2022-12-23T17:12:54.730Z,1.70
2022-12-23T17:16:56.292Z,4.25
2022-12-23T17:20:58.859Z,7.57
2022-12-23T17:25:00.279Z,8.23
2022-12-23T17:29:03.555Z,2.67
2022-12-23T17:33:05.294Z,7.50
2022-12-23T17:37:20.522Z,2.75
2022-12-23T17:41:30.835Z,2.80
2022-12-23T17:45:32.340Z,3.85
2022-12-23T17:49:33.896Z,3.55
2022-12-23T17:53:35.334Z,8.63
2022-12-23T17:57:36.782Z,4.85
2022-12-23T18:01:38.714Z,3.45
2022-12-23T18:05:40.249Z,4.07
2022-12-23T18:09:41.784Z,3.55
2022-12-23T18:13:43.559Z,7.95
2022-12-23T18:17:45.141Z,7.60
2022-12-23T18:21:47.222Z,5.18
2022-12-23T18:25:48.750Z,8.38
2022-12-23T18:29:51.669Z,4.55
2022-12-23T18:33:53.262Z,6.00
2022-12-23T18:37:55.402Z,13.10
2022-12-23T18:41:56.829Z,14.38
2022-12-23T18:45:58.311Z,3.47
2022-12-23T18:49:59.745Z,3.75
2022-12-23T18:54:01.173Z,5.90
2022-12-23T18:58:02.637Z,3.88
2022-12-23T19:02:04.650Z,5.97
2022-12-23T19:06:08.085Z,8.35
2022-12-23T19:10:11.906Z,3.80
2022-12-23T19:14:13.702Z,1.85
2022-12-23T19:18:17.672Z,2.67
2022-12-23T19:26:48.857Z,2.33
2022-12-23T19:30:50.809Z,3.92
2022-12-23T19:34:52.442Z,2.40
2022-12-23T19:38:56.096Z,3.47
2022-12-23T19:42:57.648Z,2.13
2022-12-23T19:46:59.388Z,2.25
2022-12-23T19:51:19.236Z,3.47
2022-12-23T19:55:20.779Z,1.05
2022-12-23T19:59:22.465Z,1.60
2022-12-23T20:03:23.914Z,2.22
2022-12-23T20:07:25.371Z,1.30
2022-12-23T20:11:30.269Z,1.58
2022-12-23T20:15:31.753Z,1.83
2022-12-23T20:19:34.241Z,2.83
2022-12-23T20:23:35.737Z,4.53
2022-12-23T20:27:38.660Z,3.53
2022-12-23T20:31:40.836Z,3.35
2022-12-23T20:35:42.414Z,2.22
2022-12-23T20:39:43.839Z,1.75
2022-12-23T20:43:56.929Z,3.42
2022-12-23T20:48:04.862Z,5.85
2022-12-23T20:52:06.409Z,3.92
2022-12-23T20:56:12.189Z,2.13
2022-12-23T21:00:14.208Z,2.28
2022-12-23T21:04:16.438Z,2.10
2022-12-23T21:08:17.846Z,1.70
2022-12-23T21:12:19.331Z,2.45
2022-12-23T21:16:20.860Z,1.35
2022-12-23T21:20:22.321Z,2.38
2022-12-23T21:24:23.820Z,2.35
2022-12-23T21:28:25.247Z,2.78
2022-12-23T21:32:26.982Z,3.42
2022-12-23T21:36:31.409Z,1.45
2022-12-23T21:40:32.905Z,3.63
2022-12-23T21:44:35.411Z,1.20
2022-12-23T21:48:37.733Z,5.07
2022-12-23T21:52:39.166Z,2.00
2022-12-23T21:56:41.514Z,3.83
2022-12-23T22:00:45.182Z,3.00
2022-12-23T22:04:46.646Z,1.30
2022-12-23T22:08:49.251Z,2.03
2022-12-23T22:12:50.708Z,1.60
2022-12-23T22:16:52.550Z,1.05
2022-12-23T22:20:54.046Z,2.28
2022-12-23T22:24:55.487Z,2.72
2022-12-23T22:28:59.624Z,1.35
2022-12-23T22:33:01.123Z,2.72
2022-12-23T22:37:02.829Z,2.20
2022-12-23T22:41:05.798Z,6.63
2022-12-23T22:45:09.189Z,2.75
2022-12-23T22:49:12.902Z,5.07
2022-12-23T22:53:14.476Z,4.20
2022-12-23T22:57:15.949Z,1.55
2022-12-23T23:01:29.286Z,2.00
2022-12-23T23:05:30.824Z,7.93
2022-12-23T23:09:32.280Z,1.75
2022-12-23T23:13:35.125Z,1.83
2022-12-23T23:17:36.545Z,2.50
2022-12-23T23:21:38.017Z,0.85
2022-12-23T23:25:39.572Z,3.13
2022-12-23T23:29:41.345Z,1.23
2022-12-23T23:33:43.008Z,6.30
2022-12-23T23:37:44.420Z,1.23
2022-12-23T23:41:46.029Z,2.08
2022-12-23T23:45:47.586Z,2.00
2022-12-23T23:49:49.043Z,1.25
2022-12-23T23:53:50.581Z,2.00
2022-12-23T23:57:52.014Z,0.98
